Time;durP1;ratioP1;P1;durP2;ratioP2;P2;SDS_P1;SDS_P2;PMS_P1;PMS_P2;Temp;Humidity;BMP_temperature;BMP_pressure;BME280_temperature;BME280_humidity;BME280_pressure;Samples;Min_cycle;Max_cycle;Signal;HPM_P1;HPM_P2
2023/07/29 00:02:19;;;;;;;7.60;5.07;;;23.40;95.90;;;;;;5055762;28;20188;-67
2023/07/29 00:04:45;;;;;;;8.77;5.00;;;23.30;95.40;;;;;;5054696;28;20276;-67
2023/07/29 00:07:11;;;;;;;8.17;5.00;;;23.20;95.30;;;;;;5053365;28;20180;-67
2023/07/29 00:09:38;;;;;;;13.17;5.53;;;23.10;95.30;;;;;;5054740;28;20711;-67
2023/07/29 00:12:05;;;;;;;8.53;5.10;;;23.10;95.30;;;;;;5053483;28;20283;-67
2023/07/29 00:14:31;;;;;;;10.50;5.20;;;23.10;95.20;;;;;;5055974;28;20191;-67
2023/07/29 00:16:57;;;;;;;10.73;4.90;;;23.10;95.20;;;;;;5053348;28;20206;-67
2023/07/29 00:19:24;;;;;;;10.63;5.17;;;23.10;95.10;;;;;;5043941;28;20190;-67
2023/07/29 00:21:50;;;;;;;9.83;5.30;;;23.10;95.10;;;;;;5054322;28;20609;-68
2023/07/29 00:24:16;;;;;;;13.53;5.13;;;23.00;95.00;;;;;;5051241;28;20763;-67
2023/07/29 00:26:42;;;;;;;10.53;5.13;;;23.00;95.00;;;;;;5056931;28;20194;-67
2023/07/29 00:29:08;;;;;;;8.37;4.80;;;23.00;94.90;;;;;;5056582;28;20190;-68
2023/07/29 00:31:35;;;;;;;10.40;5.50;;;23.00;94.90;;;;;;5052354;28;20593;-67
2023/07/29 00:34:01;;;;;;;7.80;5.00;;;23.00;94.90;;;;;;5058349;28;21775;-68
2023/07/29 00:36:27;;;;;;;9.33;5.20;;;23.00;94.70;;;;;;5048037;28;20187;-67
2023/07/29 00:38:54;;;;;;;10.90;5.83;;;23.00;94.80;;;;;;5055192;28;20216;-67
2023/07/29 00:41:23;;;;;;;14.33;5.30;;;23.10;94.70;;;;;;5055175;28;20195;-67
2023/07/29 00:43:49;;;;;;;13.57;5.47;;;23.20;94.60;;;;;;5052858;28;20199;-67
2023/07/29 00:46:17;;;;;;;10.17;5.00;;;23.30;94.60;;;;;;5039002;28;20186;-67
2023/07/29 00:48:43;;;;;;;9.73;5.30;;;23.20;94.40;;;;;;5054078;28;20764;-68
2023/07/29 00:51:10;;;;;;;9.03;5.10;;;23.30;94.30;;;;;;5054712;28;20292;-67
2023/07/29 00:53:36;;;;;;;13.00;5.10;;;23.20;94.10;;;;;;5057837;28;20379;-67
2023/07/29 00:56:03;;;;;;;11.87;4.83;;;23.20;93.80;;;;;;5058017;28;20653;-67
2023/07/29 00:58:29;;;;;;;12.73;5.17;;;23.20;93.60;;;;;;5055224;28;20720;-68
2023/07/29 01:00:56;;;;;;;10.43;4.57;;;23.30;93.30;;;;;;5054879;28;20183;-67
2023/07/29 01:03:23;;;;;;;11.93;5.33;;;23.40;92.90;;;;;;5085037;28;20298;-67
2023/07/29 01:06:40;;;;;;;16.27;5.27;;;23.40;92.60;;;;;;5059124;28;20193;-67
2023/07/29 01:09:44;;;;;;;11.47;5.07;;;23.50;92.30;;;;;;5057613;28;20775;-67
2023/07/29 01:12:55;;;;;;;10.83;4.53;;;23.50;91.90;;;;;;5053619;28;20553;-67
2023/07/29 01:16:05;;;;;;;13.93;5.17;;;23.50;91.80;;;;;;5036612;28;20353;-67
2023/07/29 01:18:35;;;;;;;8.07;4.73;;;23.60;91.70;;;;;;5057097;28;20187;-68
2023/07/29 01:21:07;;;;;;;10.77;4.87;;;23.60;91.60;;;;;;5055335;28;20728;-67
2023/07/29 01:23:36;;;;;;;12.10;4.40;;;23.60;91.80;;;;;;5058063;28;20206;-67
2023/07/29 01:26:04;;;;;;;8.33;4.80;;;23.60;91.40;;;;;;5059440;28;20175;-67
2023/07/29 01:28:31;;;;;;;9.87;4.73;;;23.40;91.00;;;;;;5060525;28;20179;-67
2023/07/29 01:31:43;;;;;;;8.47;4.57;;;23.20;91.00;;;;;;5062209;28;20568;-67
2023/07/29 01:34:28;;;;;;;8.40;5.03;;;23.10;91.10;;;;;;5022024;28;20279;-68
2023/07/29 01:36:59;;;;;;;9.53;4.90;;;23.00;91.20;;;;;;5022009;28;20191;-67
2023/07/29 01:39:29;;;;;;;8.80;4.53;;;23.00;91.20;;;;;;5046947;28;20206;-68
2023/07/29 01:41:55;;;;;;;12.17;4.87;;;22.90;91.30;;;;;;5060341;28;20187;-67
2023/07/29 01:44:22;;;;;;;16.80;5.27;;;22.90;91.70;;;;;;5061771;28;20644;-67
2023/07/29 01:46:50;;;;;;;11.83;4.93;;;22.90;91.80;;;;;;5064043;28;20183;-68
2023/07/29 01:49:16;;;;;;;8.70;5.20;;;22.90;91.70;;;;;;5058154;28;20190;-68
2023/07/29 01:51:43;;;;;;;10.87;4.70;;;22.80;91.80;;;;;;5058991;28;20213;-68
2023/07/29 01:54:09;;;;;;;14.33;6.07;;;22.80;91.90;;;;;;5062230;28;20179;-68
2023/07/29 01:56:37;;;;;;;13.23;5.00;;;22.70;91.90;;;;;;5061211;28;20190;-69
2023/07/29 01:59:03;;;;;;;8.47;4.80;;;22.70;92.00;;;;;;5080974;28;20191;-68
2023/07/29 02:01:30;;;;;;;10.47;5.10;;;22.60;92.10;;;;;;5055988;28;20207;-68
2023/07/29 02:03:56;;;;;;;9.97;4.70;;;22.70;92.30;;;;;;5055057;28;20307;-68
2023/07/29 02:06:23;;;;;;;11.63;5.37;;;22.70;92.30;;;;;;5062958;28;20676;-68
2023/07/29 02:08:50;;;;;;;10.83;4.83;;;22.80;92.30;;;;;;5063278;28;20558;-68
2023/07/29 02:11:16;;;;;;;10.87;5.10;;;22.80;92.20;;;;;;5057561;28;20183;-68
2023/07/29 02:13:42;;;;;;;13.17;5.57;;;22.80;92.30;;;;;;5062370;28;20733;-68
2023/07/29 02:16:08;;;;;;;7.87;4.90;;;22.80;92.30;;;;;;5057253;28;20734;-68
2023/07/29 02:18:34;;;;;;;15.10;4.80;;;22.80;92.20;;;;;;5063742;28;20729;-68
2023/07/29 02:21:01;;;;;;;12.63;5.27;;;22.70;92.30;;;;;;5060617;28;20183;-68
2023/07/29 02:23:27;;;;;;;13.57;4.60;;;22.70;92.30;;;;;;5059885;28;20203;-68
2023/07/29 02:25:53;;;;;;;14.53;5.67;;;22.70;92.40;;;;;;5056807;28;20190;-68
2023/07/29 02:28:19;;;;;;;11.70;5.07;;;22.70;92.40;;;;;;5059726;28;20919;-68
2023/07/29 02:30:46;;;;;;;7.90;4.70;;;22.70;92.50;;;;;;5060446;28;21059;-67
2023/07/29 02:33:12;;;;;;;14.87;4.70;;;22.70;92.50;;;;;;5060467;28;20210;-67
2023/07/29 02:35:39;;;;;;;14.90;5.10;;;22.70;92.40;;;;;;5059765;28;20195;-67
2023/07/29 02:38:05;;;;;;;11.17;5.03;;;22.70;92.30;;;;;;5057241;28;20179;-67
2023/07/29 02:40:31;;;;;;;10.47;4.87;;;22.70;92.40;;;;;;5056699;28;20671;-67
2023/07/29 02:42:57;;;;;;;15.07;5.83;;;22.70;92.60;;;;;;5056432;28;20273;-67
2023/07/29 02:45:23;;;;;;;12.43;5.90;;;22.80;92.90;;;;;;5046544;28;20700;-67
2023/07/29 02:47:49;;;;;;;9.80;4.77;;;22.80;93.30;;;;;;5058918;28;20245;-67
2023/07/29 02:50:16;;;;;;;19.47;5.07;;;22.80;93.50;;;;;;5060746;28;20198;-66
2023/07/29 02:52:42;;;;;;;14.27;5.37;;;22.90;93.70;;;;;;5054358;28;20249;-66
2023/07/29 02:55:08;;;;;;;11.63;5.03;;;22.90;93.90;;;;;;5055703;28;20816;-66
2023/07/29 02:57:34;;;;;;;15.00;5.43;;;22.90;94.30;;;;;;5089007;28;20218;-66
2023/07/29 03:00:01;;;;;;;12.90;5.63;;;22.90;94.50;;;;;;5060337;28;20186;-66
2023/07/29 03:02:27;;;;;;;9.03;5.23;;;23.00;94.60;;;;;;5055307;28;20220;-67
2023/07/29 03:04:53;;;;;;;17.23;6.03;;;23.00;94.80;;;;;;5055228;28;20214;-67
2023/07/29 03:07:20;;;;;;;16.70;5.43;;;23.00;94.90;;;;;;5054002;28;20180;-67
2023/07/29 03:09:46;;;;;;;9.73;4.93;;;23.00;95.00;;;;;;5054901;28;20688;-66
2023/07/29 03:12:13;;;;;;;18.80;5.73;;;23.10;95.10;;;;;;5056934;28;20185;-66
2023/07/29 03:14:41;;;;;;;11.70;5.10;;;23.10;95.20;;;;;;5071087;28;20969;-67
2023/07/29 03:17:07;;;;;;;9.83;5.57;;;23.10;95.30;;;;;;5053487;28;20183;-67
2023/07/29 03:19:33;;;;;;;8.97;5.13;;;23.10;95.20;;;;;;5052368;28;20995;-67
2023/07/29 03:21:59;;;;;;;10.50;5.20;;;23.10;95.30;;;;;;5051156;28;20736;-67
2023/07/29 03:24:26;;;;;;;13.73;5.17;;;23.10;95.40;;;;;;5060485;28;20766;-68
2023/07/29 03:26:52;;;;;;;10.97;5.57;;;23.10;95.40;;;;;;5054891;28;20184;-67
2023/07/29 03:29:18;;;;;;;7.60;5.00;;;23.00;95.40;;;;;;5060922;28;20265;-67
2023/07/29 03:31:44;;;;;;;11.43;5.37;;;22.90;95.40;;;;;;5071172;28;20290;-67
2023/07/29 03:34:12;;;;;;;8.67;5.00;;;22.90;95.50;;;;;;5054297;28;20192;-67
2023/07/29 03:36:38;;;;;;;11.93;5.47;;;22.80;95.70;;;;;;5056703;28;20189;-67
2023/07/29 03:39:04;;;;;;;13.57;4.83;;;22.80;96.00;;;;;;5051616;28;20191;-67
2023/07/29 03:41:31;;;;;;;11.03;5.27;;;22.80;95.90;;;;;;5055327;28;20190;-67
2023/07/29 03:43:57;;;;;;;11.77;4.97;;;22.80;96.00;;;;;;5055295;28;20234;-67
2023/07/29 03:46:24;;;;;;;12.00;5.53;;;22.70;96.00;;;;;;5058316;28;20210;-67
2023/07/29 03:48:51;;;;;;;15.60;6.00;;;22.70;96.10;;;;;;5069522;28;20191;-67
2023/07/29 03:51:17;;;;;;;11.90;5.60;;;22.70;96.10;;;;;;5054969;28;20206;-67
2023/07/29 03:53:44;;;;;;;12.50;5.80;;;22.70;96.20;;;;;;5057910;28;20240;-67
2023/07/29 03:56:10;;;;;;;9.40;5.20;;;22.70;96.40;;;;;;5040745;28;20841;-67
2023/07/29 03:58:36;;;;;;;13.70;5.80;;;22.70;96.60;;;;;;5054726;28;20193;-67
2023/07/29 04:01:04;;;;;;;13.40;5.43;;;22.70;96.70;;;;;;5073165;28;20735;-67
2023/07/29 04:03:32;;;;;;;11.43;5.03;;;22.70;96.80;;;;;;5055491;28;20690;-67
2023/07/29 04:05:58;;;;;;;12.73;5.73;;;22.70;96.80;;;;;;5058653;28;20646;-67
2023/07/29 04:08:24;;;;;;;12.40;5.57;;;22.60;96.90;;;;;;5057453;28;20207;-68
2023/07/29 04:10:51;;;;;;;11.73;5.73;;;22.60;97.00;;;;;;5055471;28;20929;-68
2023/07/29 04:13:17;;;;;;;10.33;5.13;;;22.60;97.00;;;;;;5057234;28;20198;-68
2023/07/29 04:15:43;;;;;;;8.90;5.50;;;22.60;97.00;;;;;;5054842;28;20183;-67
2023/07/29 04:18:09;;;;;;;17.40;5.17;;;22.60;96.90;;;;;;5055232;28;20198;-67
2023/07/29 04:20:36;;;;;;;12.47;5.27;;;22.60;97.20;;;;;;5057652;28;20191;-67
2023/07/29 04:23:02;;;;;;;7.73;4.77;;;22.40;97.50;;;;;;5056001;28;20201;-67
2023/07/29 04:25:28;;;;;;;10.13;5.50;;;22.40;97.70;;;;;;5057856;28;20191;-66
2023/07/29 04:27:55;;;;;;;12.30;5.33;;;22.40;97.90;;;;;;5057807;28;20197;-66
2023/07/29 04:30:21;;;;;;;11.60;5.53;;;22.50;98.00;;;;;;5057978;28;20696;-67
2023/07/29 04:32:48;;;;;;;10.63;5.23;;;22.60;98.30;;;;;;5054300;28;20191;-67
2023/07/29 04:35:14;;;;;;;12.07;5.33;;;22.60;98.90;;;;;;5055662;28;20653;-67
2023/07/29 04:37:41;;;;;;;11.20;6.00;;;22.70;99.40;;;;;;5054445;28;20653;-68
2023/07/29 04:40:07;;;;;;;17.10;5.80;;;22.80;99.30;;;;;;5056975;28;20221;-67
2023/07/29 04:42:34;;;;;;;11.23;5.77;;;22.90;99.20;;;;;;5052621;28;20244;-67
2023/07/29 04:45:00;;;;;;;11.07;5.50;;;23.00;98.90;;;;;;5046162;28;20214;-67
2023/07/29 04:47:26;;;;;;;13.47;5.70;;;23.10;98.90;;;;;;5053752;28;20260;-67
2023/07/29 04:49:52;;;;;;;14.10;6.00;;;23.20;99.20;;;;;;5054759;28;20186;-67
2023/07/29 04:52:19;;;;;;;10.80;5.63;;;23.40;99.60;;;;;;5053011;28;20744;-67
2023/07/29 04:54:45;;;;;;;12.47;5.77;;;23.40;99.90;;;;;;5050880;28;20307;-67
2023/07/29 04:57:12;;;;;;;18.47;6.03;;;23.60;99.90;;;;;;5056701;28;20202;-67
2023/07/29 04:59:38;;;;;;;10.47;5.60;;;23.70;99.90;;;;;;5055027;28;20203;-67
2023/07/29 05:02:04;;;;;;;12.03;5.83;;;23.80;99.90;;;;;;5053393;28;20191;-67
2023/07/29 05:04:31;;;;;;;12.07;5.47;;;23.90;99.90;;;;;;5074575;28;20214;-67
2023/07/29 05:06:57;;;;;;;7.93;5.00;;;23.90;99.90;;;;;;5059813;28;20191;-67
2023/07/29 05:09:24;;;;;;;15.47;6.07;;;24.00;99.90;;;;;;5056937;28;20198;-66
2023/07/29 05:11:50;;;;;;;13.77;5.97;;;24.10;99.90;;;;;;5061911;28;20194;-66
2023/07/29 05:14:18;;;;;;;10.67;5.63;;;24.10;99.90;;;;;;5059331;28;20191;-67
2023/07/29 05:16:44;;;;;;;16.40;5.73;;;24.20;99.90;;;;;;5060714;28;20953;-67
2023/07/29 05:19:11;;;;;;;11.60;5.43;;;24.30;99.50;;;;;;5058672;28;20677;-67
2023/07/29 05:21:38;;;;;;;12.90;6.00;;;24.30;99.00;;;;;;5063551;28;20209;-67
2023/07/29 05:24:05;;;;;;;10.17;5.10;;;24.40;98.30;;;;;;5060526;28;20206;-67
2023/07/29 05:26:31;;;;;;;12.63;5.90;;;24.50;98.00;;;;;;5055534;28;20693;-67
2023/07/29 05:28:57;;;;;;;9.67;4.83;;;24.50;98.30;;;;;;5058858;28;20523;-67
2023/07/29 05:31:24;;;;;;;9.33;5.23;;;24.60;97.50;;;;;;5060430;28;20277;-67
2023/07/29 05:33:51;;;;;;;11.03;5.30;;;24.70;97.50;;;;;;5060316;28;20210;-67
2023/07/29 05:36:17;;;;;;;10.83;6.00;;;24.70;97.10;;;;;;5057132;28;20335;-67
2023/07/29 05:38:43;;;;;;;7.63;5.23;;;24.70;97.20;;;;;;5055214;28;20203;-67
2023/07/29 05:41:09;;;;;;;12.50;6.17;;;24.80;97.20;;;;;;5061096;28;20198;-67
2023/07/29 05:43:36;;;;;;;8.00;4.93;;;24.90;96.70;;;;;;5057608;28;20573;-67
2023/07/29 05:46:02;;;;;;;18.53;5.83;;;25.00;96.60;;;;;;5060750;28;20232;-67
2023/07/29 05:48:28;;;;;;;8.83;5.07;;;25.10;96.80;;;;;;5069734;28;20712;-67
2023/07/29 05:50:54;;;;;;;9.35;5.43;;;25.10;96.90;;;;;;5061605;28;20218;-67
2023/07/29 05:53:21;;;;;;;15.83;5.73;;;25.20;96.30;;;;;;5058149;28;20195;-67
2023/07/29 05:55:47;;;;;;;13.43;5.15;;;25.30;96.40;;;;;;5040601;28;20218;-67
2023/07/29 05:58:13;;;;;;;8.77;5.70;;;25.40;96.30;;;;;;5060744;28;20581;-68
2023/07/29 06:00:39;;;;;;;9.75;4.97;;;25.50;96.10;;;;;;5059178;28;20705;-68
2023/07/29 06:03:05;;;;;;;14.98;5.20;;;25.60;96.30;;;;;;5059877;28;20628;-68
2023/07/29 06:05:32;;;;;;;17.30;5.55;;;25.60;96.60;;;;;;5073051;28;20526;-68
2023/07/29 06:07:58;;;;;;;10.50;6.00;;;25.80;97.00;;;;;;5060587;28;20278;-67
2023/07/29 06:10:25;;;;;;;12.35;5.63;;;25.90;97.20;;;;;;5059379;28;20187;-67
2023/07/29 06:12:51;;;;;;;16.75;5.93;;;25.90;97.80;;;;;;5059997;28;20724;-67
2023/07/29 06:15:17;;;;;;;11.30;6.00;;;26.00;98.00;;;;;;5058727;28;20804;-68
2023/07/29 06:17:43;;;;;;;17.52;6.03;;;26.10;98.20;;;;;;5057993;28;20183;-67
2023/07/29 06:20:10;;;;;;;12.55;5.90;;;26.30;98.40;;;;;;5062389;28;20237;-68
2023/07/29 06:22:36;;;;;;;9.35;5.95;;;26.40;98.60;;;;;;5058136;28;20195;-68
2023/07/29 06:25:03;;;;;;;13.60;5.72;;;26.50;98.70;;;;;;5054234;28;20203;-68
2023/07/29 06:27:29;;;;;;;14.77;6.45;;;26.50;98.90;;;;;;5053838;28;20188;-68
2023/07/29 06:29:55;;;;;;;12.90;6.07;;;26.60;99.50;;;;;;5059527;28;20236;-67
2023/07/29 06:32:21;;;;;;;15.02;6.05;;;26.70;99.60;;;;;;5055276;28;20175;-67
2023/07/29 06:34:48;;;;;;;14.13;6.03;;;26.80;99.80;;;;;;5055793;28;20198;-67
2023/07/29 06:37:14;;;;;;;13.40;6.10;;;26.90;99.90;;;;;;5056598;28;20190;-67
2023/07/29 06:39:40;;;;;;;16.98;6.45;;;27.00;99.90;;;;;;5064223;28;20823;-67
2023/07/29 06:42:06;;;;;;;9.98;5.93;;;27.10;99.80;;;;;;5059117;28;20191;-68
2023/07/29 06:44:33;;;;;;;16.85;6.28;;;27.10;99.90;;;;;;5056698;28;20216;-67
2023/07/29 06:46:59;;;;;;;12.43;6.00;;;27.20;99.90;;;;;;5048818;28;20183;-68
2023/07/29 06:49:26;;;;;;;10.00;5.60;;;27.30;99.90;;;;;;5059124;28;20193;-67
2023/07/29 06:51:52;;;;;;;13.88;5.90;;;27.40;99.70;;;;;;5074082;28;20214;-67
2023/07/29 06:54:18;;;;;;;13.40;5.75;;;27.50;99.90;;;;;;5057939;28;20202;-67
2023/07/29 06:56:44;;;;;;;12.02;5.72;;;27.60;99.40;;;;;;5043171;28;20287;-67
2023/07/29 06:59:11;;;;;;;17.60;6.47;;;27.60;99.60;;;;;;5061209;28;20198;-67
2023/07/29 07:01:37;;;;;;;13.82;5.38;;;27.70;99.50;;;;;;5057836;28;20191;-67
2023/07/29 07:04:03;;;;;;;15.93;5.97;;;27.80;99.50;;;;;;5060235;28;20219;-67
2023/07/29 07:06:29;;;;;;;14.63;6.07;;;27.90;99.20;;;;;;5056416;28;20187;-68
2023/07/29 07:08:56;;;;;;;11.10;5.47;;;27.90;99.10;;;;;;5070628;28;20666;-68
2023/07/29 07:11:22;;;;;;;13.77;6.03;;;28.00;99.10;;;;;;5060303;28;20232;-67
2023/07/29 07:13:48;;;;;;;16.98;6.07;;;28.10;98.60;;;;;;5057643;28;20190;-68
2023/07/29 07:16:14;;;;;;;15.35;6.43;;;28.20;98.00;;;;;;5055128;28;20194;-68
2023/07/29 07:18:41;;;;;;;13.35;5.60;;;28.20;97.90;;;;;;5055556;28;20203;-68
2023/07/29 07:21:07;;;;;;;16.00;6.38;;;28.30;97.70;;;;;;5053906;28;20191;-68
2023/07/29 07:23:33;;;;;;;10.13;5.75;;;28.30;97.30;;;;;;5059536;28;20660;-67
2023/07/29 07:25:59;;;;;;;17.13;5.75;;;28.40;96.90;;;;;;5058575;28;20227;-67
2023/07/29 07:28:26;;;;;;;14.63;6.18;;;28.40;96.50;;;;;;5058520;28;20777;-67
2023/07/29 07:30:52;;;;;;;16.08;6.25;;;28.50;96.70;;;;;;5052376;28;20204;-67
2023/07/29 07:33:18;;;;;;;19.05;5.22;;;28.60;96.50;;;;;;5055740;28;20271;-67
2023/07/29 07:35:45;;;;;;;14.90;5.57;;;28.70;96.60;;;;;;5058461;28;20195;-67
2023/07/29 07:38:11;;;;;;;15.52;6.10;;;28.70;96.00;;;;;;5059587;28;22186;-67
2023/07/29 07:40:37;;;;;;;18.95;6.05;;;28.80;95.90;;;;;;5057563;28;20198;-67
2023/07/29 07:43:04;;;;;;;14.07;5.63;;;29.00;95.60;;;;;;5056311;28;20207;-67
2023/07/29 07:45:31;;;;;;;11.55;5.22;;;29.00;95.40;;;;;;5071950;28;20183;-68
2023/07/29 07:47:58;;;;;;;9.52;5.40;;;29.10;94.70;;;;;;5070658;28;20935;-67
2023/07/29 07:50:24;;;;;;;11.57;5.63;;;29.20;95.10;;;;;;5061543;28;20183;-68
2023/07/29 07:52:50;;;;;;;12.38;5.70;;;29.30;95.10;;;;;;5039155;28;20187;-67
2023/07/29 07:55:16;;;;;;;14.32;6.35;;;29.30;95.10;;;;;;5038721;28;20195;-67
2023/07/29 07:57:43;;;;;;;11.38;5.55;;;29.40;94.60;;;;;;5055374;28;20626;-67
2023/07/29 08:00:10;;;;;;;15.75;5.90;;;29.40;94.70;;;;;;5073429;28;20692;-67
2023/07/29 08:02:36;;;;;;;13.98;6.15;;;29.50;94.20;;;;;;5058547;28;20249;-67
2023/07/29 08:05:02;;;;;;;13.00;5.50;;;29.60;93.90;;;;;;5058743;28;20227;-67
2023/07/29 08:07:28;;;;;;;16.25;6.05;;;29.70;94.20;;;;;;5054276;28;20179;-67
2023/07/29 08:09:55;;;;;;;8.68;5.78;;;29.80;94.70;;;;;;5036805;28;20184;-67
2023/07/29 08:12:21;;;;;;;12.48;5.90;;;30.00;94.20;;;;;;5059756;28;20184;-67
2023/07/29 08:14:47;;;;;;;9.75;5.20;;;30.00;94.00;;;;;;5059298;28;20233;-67
2023/07/29 08:17:13;;;;;;;18.70;6.15;;;30.10;93.90;;;;;;5055948;28;20193;-68
2023/07/29 08:19:40;;;;;;;13.38;5.93;;;30.20;94.00;;;;;;5048362;28;20688;-68
2023/07/29 08:22:08;;;;;;;17.20;6.28;;;30.30;93.90;;;;;;5056595;28;20198;-68
2023/07/29 08:24:34;;;;;;;16.45;5.97;;;30.40;93.50;;;;;;5064128;28;20295;-68
2023/07/29 08:27:00;;;;;;;15.23;5.60;;;30.50;93.20;;;;;;5052896;28;20226;-68
2023/07/29 08:29:27;;;;;;;18.38;6.82;;;30.60;93.40;;;;;;5059492;28;20193;-68
2023/07/29 08:31:55;;;;;;;11.43;5.65;;;30.60;93.00;;;;;;5056026;28;20198;-68
2023/07/29 08:34:21;;;;;;;13.52;5.28;;;30.80;93.20;;;;;;5056186;28;20290;-68
2023/07/29 08:36:47;;;;;;;13.00;5.68;;;30.90;92.50;;;;;;5058174;28;20190;-68
2023/07/29 08:39:13;;;;;;;13.82;5.50;;;31.00;92.00;;;;;;5055532;28;20657;-69
2023/07/29 08:42:06;;;;;;;13.80;5.82;;;31.10;94.10;;;;;;5057839;28;20542;-68
2023/07/29 08:44:44;;;;;;;17.15;5.65;;;31.20;93.00;;;;;;5040879;28;20307;-68
2023/07/29 08:47:13;;;;;;;15.75;5.50;;;31.30;92.80;;;;;;5052118;28;20188;-68
2023/07/29 08:49:41;;;;;;;12.95;5.88;;;31.50;94.20;;;;;;5048541;28;20281;-68
2023/07/29 08:52:09;;;;;;;17.67;5.60;;;31.50;94.40;;;;;;5058097;28;20689;-69
2023/07/29 08:54:36;;;;;;;14.63;5.53;;;31.60;94.10;;;;;;5055166;28;20197;-68
2023/07/29 08:57:03;;;;;;;14.85;6.15;;;31.60;94.20;;;;;;5072033;28;20520;-68
2023/07/29 08:59:30;;;;;;;13.18;5.72;;;31.70;94.70;;;;;;5065552;28;20279;-68
2023/07/29 09:01:58;;;;;;;14.48;5.93;;;31.70;94.60;;;;;;5059767;28;20202;-69
2023/07/29 09:04:25;;;;;;;12.82;5.85;;;31.80;96.10;;;;;;5058702;28;20293;-68
2023/07/29 09:06:53;;;;;;;11.20;5.75;;;31.80;96.20;;;;;;5059466;28;20818;-68
2023/07/29 09:09:21;;;;;;;10.35;6.00;;;32.00;96.00;;;;;;5055710;28;20630;-69
2023/07/29 09:11:49;;;;;;;15.25;5.63;;;32.10;96.10;;;;;;5055932;28;20546;-68
2023/07/29 09:14:15;;;;;;;13.40;6.40;;;32.10;95.70;;;;;;5057402;28;20190;-68
2023/07/29 09:16:42;;;;;;;11.48;6.03;;;32.20;95.40;;;;;;5061431;28;20182;-68
2023/07/29 09:19:08;;;;;;;12.68;5.60;;;32.20;95.60;;;;;;5057516;28;20191;-68
2023/07/29 09:21:39;;;;;;;16.33;6.05;;;32.20;96.40;;;;;;5055394;28;20274;-69
2023/07/29 09:24:07;;;;;;;17.13;5.95;;;32.10;96.50;;;;;;5044448;28;20207;-68
2023/07/29 09:26:33;;;;;;;16.30;6.25;;;32.20;96.90;;;;;;5057018;28;22212;-68
2023/07/29 09:29:00;;;;;;;12.57;5.75;;;32.30;96.90;;;;;;5058775;28;20301;-68
2023/07/29 09:31:29;;;;;;;12.45;6.10;;;32.50;96.90;;;;;;5074308;28;20302;-69
2023/07/29 09:34:02;;;;;;;16.80;5.63;;;32.60;96.60;;;;;;5057630;28;20179;-69
2023/07/29 09:36:33;;;;;;;11.93;6.32;;;32.60;97.50;;;;;;5059211;28;20191;-68
2023/07/29 09:39:00;;;;;;;10.07;5.45;;;32.70;98.30;;;;;;5062391;28;20202;-68
2023/07/29 09:41:30;;;;;;;13.45;6.30;;;32.60;98.40;;;;;;5044133;28;20786;-68
2023/07/29 09:44:00;;;;;;;17.38;6.38;;;32.60;98.90;;;;;;5059392;28;20725;-68
2023/07/29 09:46:37;;;;;;;12.20;6.43;;;32.50;99.10;;;;;;5055354;28;20508;-68
2023/07/29 09:49:06;;;;;;;13.55;6.07;;;32.50;99.30;;;;;;5061360;28;20206;-68
2023/07/29 09:51:39;;;;;;;16.98;6.38;;;32.60;99.50;;;;;;5057984;28;20887;-69
2023/07/29 09:54:06;;;;;;;18.30;6.20;;;32.60;99.50;;;;;;5059201;28;20308;-68
2023/07/29 09:56:33;;;;;;;16.75;6.68;;;32.80;99.40;;;;;;5060128;28;20252;-69
2023/07/29 09:58:59;;;;;;;16.85;5.95;;;32.80;99.70;;;;;;5064287;28;20198;-68
2023/07/29 10:01:26;;;;;;;11.57;5.97;;;32.90;99.50;;;;;;5058802;28;20201;-68
2023/07/29 10:03:53;;;;;;;11.45;5.57;;;32.80;99.90;;;;;;5055935;28;20697;-68
2023/07/29 10:06:19;;;;;;;20.95;6.05;;;33.10;99.90;;;;;;5077053;28;20186;-68
2023/07/29 10:08:49;;;;;;;16.27;6.43;;;33.30;99.90;;;;;;5057937;28;20226;-68
2023/07/29 10:11:20;;;;;;;15.00;6.00;;;33.30;99.90;;;;;;5062938;28;20194;-67
2023/07/29 10:13:47;;;;;;;15.02;6.07;;;33.30;99.90;;;;;;5061455;28;20187;-68
2023/07/29 10:16:15;;;;;;;13.82;5.78;;;33.30;99.90;;;;;;5060518;28;20278;-68
2023/07/29 10:18:42;;;;;;;14.00;5.90;;;33.40;99.90;;;;;;5061213;28;20296;-68
2023/07/29 10:21:12;;;;;;;10.00;5.45;;;33.30;99.90;;;;;;5058295;28;20967;-68
2023/07/29 10:23:49;;;;;;;14.63;5.95;;;33.20;99.90;;;;;;5059389;28;20199;-68
2023/07/29 10:26:19;;;;;;;17.27;6.07;;;33.20;99.90;;;;;;5058630;28;20697;-68
2023/07/29 10:28:53;;;;;;;14.88;6.38;;;33.10;99.90;;;;;;5061320;28;20187;-68
2023/07/29 10:31:22;;;;;;;15.10;6.10;;;33.20;99.90;;;;;;5065420;28;20202;-68
2023/07/29 10:33:49;;;;;;;14.80;5.97;;;33.10;99.90;;;;;;5059035;28;20198;-69
2023/07/29 10:36:17;;;;;;;9.80;5.63;;;33.20;99.90;;;;;;5059028;28;20502;-68
2023/07/29 10:38:44;;;;;;;14.63;5.88;;;33.20;99.90;;;;;;5057563;28;20615;-68
2023/07/29 10:41:10;;;;;;;13.10;5.55;;;33.30;99.90;;;;;;5055003;28;20230;-68
2023/07/29 10:43:38;;;;;;;19.67;6.63;;;33.30;99.90;;;;;;5056790;28;20806;-68
2023/07/29 10:46:21;;;;;;;15.15;5.90;;;33.30;99.90;;;;;;5057488;28;20187;-69
2023/07/29 10:48:51;;;;;;;15.32;5.50;;;33.20;99.90;;;;;;5059099;28;20187;-68
2023/07/29 10:51:35;;;;;;;12.13;5.80;;;33.10;99.90;;;;;;5059414;28;20187;-68
2023/07/29 10:54:03;;;;;;;12.23;5.45;;;33.30;99.90;;;;;;5059310;28;20835;-68
2023/07/29 10:56:35;;;;;;;16.67;5.72;;;33.20;99.90;;;;;;5058804;28;20274;-68
2023/07/29 10:59:17;;;;;;;14.95;6.20;;;33.00;99.90;;;;;;5054696;28;20891;-68
2023/07/29 11:01:56;;;;;;;16.98;5.68;;;32.90;99.90;;;;;;5036389;28;20191;-69
2023/07/29 11:04:30;;;;;;;13.02;5.70;;;33.10;99.90;;;;;;5059387;28;20206;-68
2023/07/29 11:07:10;;;;;;;12.48;5.28;;;33.10;99.90;;;;;;5060167;28;20515;-68
2023/07/29 11:09:49;;;;;;;13.13;5.60;;;33.10;99.90;;;;;;5056423;28;20202;-68
2023/07/29 11:12:40;;;;;;;14.40;4.97;;;33.00;99.90;;;;;;5058049;28;20183;-68
2023/07/29 11:15:23;;;;;;;14.43;5.38;;;32.80;99.90;;;;;;5066338;28;20197;-68
2023/07/29 11:17:53;;;;;;;13.00;5.07;;;32.90;99.90;;;;;;5054002;28;20188;-68
2023/07/29 11:20:31;;;;;;;13.77;5.45;;;32.80;99.90;;;;;;5050729;28;20227;-68
2023/07/29 11:23:01;;;;;;;13.38;5.07;;;32.80;99.90;;;;;;5057720;28;20286;-68
2023/07/29 11:25:30;;;;;;;14.20;5.53;;;32.80;99.90;;;;;;5059052;28;20571;-68
2023/07/29 11:27:59;;;;;;;12.25;5.20;;;32.80;99.90;;;;;;5054397;28;20542;-68
2023/07/29 11:30:27;;;;;;;12.65;4.68;;;32.80;99.90;;;;;;5056652;28;20187;-69
2023/07/29 11:32:55;;;;;;;15.00;5.05;;;32.80;99.90;;;;;;5057102;28;20269;-69
2023/07/29 11:35:21;;;;;;;17.33;4.72;;;32.80;99.90;;;;;;5060666;28;20634;-68
2023/07/29 11:37:52;;;;;;;20.92;5.05;;;32.80;99.90;;;;;;5056457;28;20612;-68
2023/07/29 11:40:23;;;;;;;11.18;4.85;;;32.80;99.90;;;;;;5071673;28;20191;-68
2023/07/29 11:42:52;;;;;;;12.77;4.90;;;32.80;99.40;;;;;;5053242;28;20821;-68
2023/07/29 11:45:21;;;;;;;16.85;5.28;;;32.80;99.90;;;;;;5056828;28;20310;-69
2023/07/29 11:47:47;;;;;;;8.95;4.72;;;32.80;99.00;;;;;;5054913;28;20184;-69
2023/07/29 11:50:15;;;;;;;16.40;4.95;;;32.80;99.00;;;;;;5056758;28;20182;-68
2023/07/29 11:52:44;;;;;;;16.33;5.47;;;32.90;98.70;;;;;;5056401;28;20285;-68
2023/07/29 11:55:13;;;;;;;16.70;5.50;;;32.90;99.00;;;;;;5052831;28;20278;-68
2023/07/29 11:57:41;;;;;;;14.32;4.60;;;32.90;98.00;;;;;;5056706;28;20680;-68
2023/07/29 12:00:10;;;;;;;12.27;4.60;;;32.80;98.00;;;;;;5056551;28;20237;-68
2023/07/29 12:02:46;;;;;;;15.23;5.07;;;32.80;97.50;;;;;;5053268;28;20195;-69
2023/07/29 12:05:15;;;;;;;11.50;4.75;;;32.80;97.40;;;;;;5060593;28;20299;-68
2023/07/29 12:07:44;;;;;;;7.97;4.40;;;32.90;96.50;;;;;;5055909;28;20190;-68
2023/07/29 12:10:11;;;;;;;15.93;5.32;;;33.00;95.00;;;;;;5055239;28;20278;-68
2023/07/29 12:12:48;;;;;;;13.23;4.88;;;33.00;94.90;;;;;;5052780;28;20203;-68
2023/07/29 12:15:27;;;;;;;9.55;4.60;;;33.10;93.40;;;;;;5051246;28;20225;-69
2023/07/29 12:17:56;;;;;;;15.27;5.13;;;33.10;93.50;;;;;;5055867;28;20274;-68
2023/07/29 12:20:23;;;;;;;20.92;5.47;;;33.20;93.40;;;;;;5057207;28;20206;-69
2023/07/29 12:23:05;;;;;;;10.63;4.70;;;33.10;93.40;;;;;;5041115;28;20298;-69
2023/07/29 12:25:32;;;;;;;9.82;4.97;;;33.20;92.90;;;;;;5052265;28;20337;-68
2023/07/29 12:28:06;;;;;;;14.30;4.90;;;33.20;93.00;;;;;;5057161;28;20189;-69
2023/07/29 12:30:33;;;;;;;9.88;4.90;;;33.20;92.80;;;;;;5051107;28;20210;-68
2023/07/29 12:32:59;;;;;;;11.60;5.00;;;33.20;92.40;;;;;;5061445;28;20178;-68
2023/07/29 12:35:37;;;;;;;13.75;4.82;;;33.20;92.10;;;;;;5062011;28;20179;-69
2023/07/29 12:38:03;;;;;;;10.32;4.82;;;33.00;92.30;;;;;;5052778;28;20190;-68
2023/07/29 12:40:29;;;;;;;14.55;5.30;;;33.10;92.20;;;;;;5052258;28;20187;-68
2023/07/29 12:42:56;;;;;;;13.80;4.97;;;33.10;92.10;;;;;;5059440;28;20182;-68
2023/07/29 12:45:26;;;;;;;15.48;5.10;;;33.10;91.70;;;;;;5056048;28;20207;-68